Time;durP1;ratioP1;P1;durP2;ratioP2;P2;SDS_P1;SDS_P2;PMS_P1;PMS_P2;Temp;Humidity;BMP_temperature;BMP_pressure;BME280_temperature;BME280_humidity;BME280_pressure;Samples;Min_cycle;Max_cycle;Signal;HPM_P1;HPM_P2
2021/07/08 00:00:51;;;;;;;15.20;6.80;;;19.30;99.90;;;19.59;68.03;101778.66;4994854;28;20385;-69
2021/07/08 00:03:19;;;;;;;8.98;8.07;;;19.10;99.90;;;19.31;68.85;101778.50;4994736;28;20427;-69
2021/07/08 00:05:48;;;;;;;12.40;7.32;;;18.90;99.90;;;19.40;69.06;101782.75;4994879;28;20074;-69
2021/07/08 00:08:16;;;;;;;8.95;6.85;;;18.90;99.90;;;19.42;69.03;101787.19;4994733;28;20097;-69
2021/07/08 00:10:51;;;;;;;10.90;7.00;;;19.00;99.90;;;19.41;68.44;101792.59;4994335;28;20491;-68
2021/07/08 00:13:22;;;;;;;11.65;7.55;;;19.00;99.90;;;19.20;68.85;101787.75;4994695;28;20081;-69
2021/07/08 00:15:51;;;;;;;9.55;7.75;;;18.80;99.90;;;19.12;69.69;101781.69;4994669;28;20042;-69
2021/07/08 00:18:21;;;;;;;10.65;7.30;;;18.70;99.90;;;18.92;69.54;101769.63;5010034;28;20100;-69
2021/07/08 00:20:50;;;;;;;11.80;8.15;;;18.60;99.90;;;19.03;69.63;101804.22;4994506;28;20116;-68
2021/07/08 00:23:21;;;;;;;9.18;7.40;;;18.50;99.90;;;19.08;69.46;101786.25;4994731;28;20042;-69
2021/07/08 00:25:52;;;;;;;;;;;18.60;99.90;;;19.21;69.03;101787.69;4993843;28;20050;-69
2021/07/08 00:28:21;;;;;;;11.65;8.13;;;18.70;99.90;;;19.28;68.72;101791.13;4994269;28;19922;-69
2021/07/08 00:30:51;;;;;;;18.33;7.75;;;18.80;99.90;;;19.32;68.53;101790.09;5009467;28;20059;-69
2021/07/08 00:33:21;;;;;;;10.43;7.63;;;18.90;99.90;;;19.34;68.39;101788.28;4994341;28;20052;-69
2021/07/08 00:35:50;;;;;;;9.23;7.82;;;18.90;99.90;;;19.37;68.20;101786.44;4994356;28;20049;-69
2021/07/08 00:38:19;;;;;;;12.20;8.13;;;19.00;99.90;;;19.48;68.22;101788.81;4994340;28;20096;-68
2021/07/08 00:40:48;;;;;;;9.80;7.70;;;19.10;99.90;;;19.46;69.19;101782.59;4994490;28;20050;-69
2021/07/08 00:43:18;;;;;;;12.15;7.93;;;19.10;99.90;;;19.40;69.65;101786.31;4993887;28;20443;-69
2021/07/08 00:45:46;;;;;;;10.75;7.82;;;19.00;99.90;;;19.31;69.74;101789.22;4994208;28;20038;-69
2021/07/08 00:48:15;;;;;;;10.75;7.20;;;18.90;99.90;;;18.95;70.65;101736.47;4994071;28;20117;-68
2021/07/08 00:50:46;;;;;;;10.43;7.55;;;18.80;99.90;;;19.07;70.92;101784.47;4993777;28;20046;-69
2021/07/08 00:53:18;;;;;;;8.13;7.32;;;18.70;99.90;;;18.85;71.88;101804.69;4993769;28;20145;-69
2021/07/08 00:55:48;;;;;;;13.60;8.13;;;18.40;99.90;;;18.91;71.27;101805.41;5009169;28;20050;-69
2021/07/08 00:58:19;;;;;;;10.27;7.95;;;18.40;99.90;;;19.00;70.90;101804.31;4994049;28;20439;-68
2021/07/08 01:00:47;;;;;;;11.95;8.10;;;18.50;99.90;;;19.04;70.68;101805.13;4994084;28;20101;-69
2021/07/08 01:03:17;;;;;;;9.95;8.65;;;18.60;99.90;;;19.04;70.28;101799.75;4993952;28;20042;-69
2021/07/08 01:05:49;;;;;;;10.18;7.97;;;18.60;99.90;;;19.03;70.78;101803.38;4993691;28;20133;-69
2021/07/08 01:08:18;;;;;;;13.93;7.70;;;18.60;99.90;;;19.01;71.37;101808.75;4993936;28;20462;-69
2021/07/08 01:10:49;;;;;;;10.85;7.75;;;18.60;99.90;;;19.01;71.51;101805.22;4993851;28;20424;-69
2021/07/08 01:13:21;;;;;;;8.80;6.15;;;18.60;99.90;;;19.05;72.54;101818.47;4993890;28;20493;-69
2021/07/08 01:15:50;;;;;;;12.82;8.75;;;18.60;99.90;;;19.01;71.76;101816.78;4994217;28;20039;-69
2021/07/08 01:18:19;;;;;;;13.52;8.85;;;18.60;99.90;;;18.51;71.43;101729.53;4993370;28;20056;-69
2021/07/08 01:20:47;;;;;;;13.65;8.82;;;18.60;99.90;;;19.05;71.19;101814.94;4992145;28;20058;-70
2021/07/08 01:23:17;;;;;;;11.43;8.70;;;18.60;99.90;;;19.11;70.82;101812.97;4994145;28;20092;-69
2021/07/08 01:25:45;;;;;;;9.82;8.32;;;18.70;99.90;;;18.88;70.47;101757.22;4993807;28;20046;-69
2021/07/08 01:28:14;;;;;;;10.35;8.43;;;18.80;99.90;;;19.30;70.49;101814.28;4993803;28;20117;-68
2021/07/08 01:30:46;;;;;;;16.10;9.50;;;18.90;99.90;;;19.33;70.49;101816.94;4993448;28;20053;-69
2021/07/08 01:33:14;;;;;;;10.68;8.77;;;19.00;99.90;;;19.42;70.06;101818.47;4993711;28;20054;-69
2021/07/08 01:35:43;;;;;;;13.55;9.35;;;19.00;99.90;;;19.40;70.08;101820.31;4993726;28;20097;-69
2021/07/08 01:38:11;;;;;;;11.80;8.23;;;19.00;99.90;;;19.43;70.04;101814.91;4993518;28;20574;-69
2021/07/08 01:40:42;;;;;;;9.98;7.70;;;19.00;99.90;;;19.38;71.09;101814.13;5008239;28;20053;-71
2021/07/08 01:43:10;;;;;;;10.90;7.70;;;19.00;99.90;;;19.31;70.85;101799.06;4993926;28;20053;-71
2021/07/08 01:45:38;;;;;;;10.95;7.43;;;19.00;99.90;;;19.41;71.56;101819.41;4993295;28;20566;-71
2021/07/08 01:48:07;;;;;;;11.60;7.95;;;19.00;99.90;;;19.44;72.41;101812.16;4993541;28;20097;-71
2021/07/08 01:50:36;;;;;;;11.18;7.78;;;19.00;99.90;;;19.17;72.25;101785.09;4993261;28;20052;-71
2021/07/08 01:53:07;;;;;;;11.65;8.10;;;19.00;99.90;;;19.39;71.31;101813.22;4993448;28;20093;-71
2021/07/08 01:55:35;;;;;;;;;;;19.00;99.90;;;19.25;71.63;101809.94;4994145;28;20133;-71
2021/07/08 01:58:06;;;;;;;11.43;8.07;;;18.90;99.90;;;19.15;72.94;101814.66;4993506;28;19992;-70
2021/07/08 02:00:34;;;;;;;10.90;8.60;;;18.70;99.90;;;19.13;72.41;101810.25;4993188;28;20062;-71
2021/07/08 02:03:03;;;;;;;15.35;8.65;;;18.70;99.90;;;19.20;72.22;101814.56;4993230;28;20125;-71
2021/07/08 02:05:32;;;;;;;12.80;9.05;;;18.70;99.90;;;19.28;72.16;101802.69;4993933;28;20054;-71
2021/07/08 02:08:00;;;;;;;12.10;8.85;;;18.80;99.90;;;19.33;72.19;101795.47;4997039;28;20042;-71
2021/07/08 02:10:29;;;;;;;13.90;8.73;;;18.90;99.90;;;19.41;71.97;101796.16;4996951;28;20043;-71
2021/07/08 02:12:57;;;;;;;15.02;8.27;;;19.00;99.90;;;19.49;71.54;101786.06;4996678;28;20070;-70
2021/07/08 02:15:27;;;;;;;13.02;8.93;;;19.10;99.90;;;19.44;71.29;101781.75;4996781;28;20372;-71
2021/07/08 02:17:58;;;;;;;15.15;9.45;;;19.10;99.90;;;19.46;71.40;101793.34;4996726;28;20380;-71
2021/07/08 02:20:26;;;;;;;;;;;19.10;99.90;;;19.00;71.48;101717.59;4996692;28;20459;-71
2021/07/08 02:22:55;;;;;;;9.38;8.40;;;19.10;99.90;;;19.27;71.61;101768.75;4997016;28;19972;-71
2021/07/08 02:25:23;;;;;;;11.15;8.82;;;19.00;99.90;;;19.36;71.78;101789.13;4996846;28;20050;-70
2021/07/08 02:27:52;;;;;;;15.95;9.25;;;18.90;99.90;;;19.33;71.89;101790.09;4996373;28;20081;-71
2021/07/08 02:30:23;;;;;;;17.08;8.23;;;18.90;99.90;;;19.26;71.86;101784.91;4996559;28;20057;-71
2021/07/08 02:32:56;;;;;;;13.60;8.88;;;18.90;99.90;;;19.31;71.65;101767.75;4996599;28;20483;-71
2021/07/08 02:35:27;;;;;;;13.45;8.27;;;18.90;99.90;;;17.49;71.54;101449.00;4996515;28;20109;-71
2021/07/08 02:37:57;;;;;;;13.00;8.93;;;19.00;99.90;;;19.48;71.78;101813.84;4996227;28;20569;-70
2021/07/08 02:40:30;;;;;;;12.57;7.90;;;19.00;99.90;;;19.41;72.56;101801.53;4996463;28;20064;-71
2021/07/08 02:43:00;;;;;;;11.93;8.65;;;19.00;99.90;;;19.32;73.36;101776.66;4996438;28;20046;-71
2021/07/08 02:45:31;;;;;;;11.48;8.07;;;19.00;99.90;;;18.96;73.83;101757.03;5011086;28;20054;-71
2021/07/08 02:48:04;;;;;;;11.50;8.57;;;18.90;99.90;;;19.07;75.41;101796.97;4995006;28;20499;-71
2021/07/08 02:50:34;;;;;;;11.65;8.18;;;18.60;99.90;;;18.98;74.83;101765.94;4995889;28;20459;-71
2021/07/08 02:53:03;;;;;;;11.32;8.07;;;18.60;99.90;;;18.98;74.73;101773.09;4996296;28;20038;-71
2021/07/08 02:55:32;;;;;;;8.38;7.53;;;18.60;99.90;;;19.07;74.58;101779.09;4995983;28;20050;-71
2021/07/08 02:58:03;;;;;;;9.32;7.75;;;18.70;99.90;;;19.03;74.40;101781.91;4996076;28;20100;-70
2021/07/08 03:00:32;;;;;;;12.93;8.45;;;18.60;99.90;;;19.04;74.45;101778.28;4995924;28;20106;-71
2021/07/08 03:03:03;;;;;;;12.70;8.32;;;18.60;99.90;;;18.83;74.45;101747.53;4996054;28;20230;-70
2021/07/08 03:05:31;;;;;;;10.10;7.93;;;18.60;99.90;;;18.87;74.33;101763.50;4994468;28;20046;-71
2021/07/08 03:08:00;;;;;;;13.45;8.93;;;18.70;99.90;;;18.95;74.20;101754.41;4995927;28;20046;-71
2021/07/08 03:10:30;;;;;;;12.30;8.50;;;18.80;99.90;;;19.12;73.88;101784.34;4995852;28;20042;-71
2021/07/08 03:13:00;;;;;;;10.82;7.75;;;18.80;99.90;;;19.23;73.59;101793.00;4996232;28;20419;-71
2021/07/08 03:15:30;;;;;;;10.63;7.88;;;18.90;99.90;;;19.31;73.46;101793.69;5010954;28;20141;-71
2021/07/08 03:18:00;;;;;;;11.90;8.85;;;18.90;99.90;;;19.33;73.26;101797.25;4995321;28;20042;-71
2021/07/08 03:20:34;;;;;;;9.20;7.80;;;19.00;99.90;;;19.38;73.07;101808.75;4995545;28;20379;-70
2021/07/08 03:23:05;;;;;;;7.75;6.88;;;19.00;99.90;;;19.35;72.76;101793.63;4995374;28;20278;-71
2021/07/08 03:25:33;;;;;;;;;;;19.00;99.90;;;19.37;72.31;101783.75;4996005;28;20051;-71
2021/07/08 03:28:04;;;;;;;10.27;7.55;;;19.10;99.90;;;19.27;72.39;101774.13;4995572;28;19969;-71
2021/07/08 03:30:33;;;;;;;11.02;8.00;;;19.10;99.90;;;19.39;72.75;101808.72;4995369;28;20436;-71
2021/07/08 03:33:03;;;;;;;11.27;7.68;;;19.00;99.90;;;19.48;72.57;101802.22;4995305;28;20550;-71
2021/07/08 03:35:35;;;;;;;9.70;7.32;;;19.00;99.90;;;19.55;71.97;101798.47;4993912;28;20050;-71
2021/07/08 03:38:05;;;;;;;9.13;7.65;;;19.10;99.90;;;19.45;71.79;101776.34;4995329;28;20042;-71
2021/07/08 03:40:33;;;;;;;9.32;7.50;;;19.20;99.90;;;19.69;71.60;101807.03;4995335;28;20046;-71
2021/07/08 03:43:02;;;;;;;12.32;7.95;;;19.30;99.90;;;19.73;71.23;101795.28;4995209;28;20070;-71
2021/07/08 03:45:31;;;;;;;10.48;7.32;;;19.40;99.90;;;19.82;71.20;101803.13;4994896;28;20083;-71
2021/07/08 03:47:59;;;;;;;13.80;7.00;;;19.40;99.90;;;19.86;71.08;101809.28;4995158;28;20057;-71
2021/07/08 03:50:28;;;;;;;8.50;6.90;;;19.50;99.90;;;19.83;70.73;101794.13;4995071;28;20070;-71
2021/07/08 03:52:58;;;;;;;11.90;7.47;;;19.50;99.90;;;19.96;70.74;101808.97;4995047;28;20046;-71
2021/07/08 03:55:27;;;;;;;9.50;8.00;;;19.60;99.90;;;20.04;70.38;101823.06;4995078;28;20050;-71
2021/07/08 03:57:56;;;;;;;13.00;7.78;;;19.60;99.90;;;19.78;72.30;101825.59;4994671;28;20503;-70
2021/07/08 04:00:31;;;;;;;8.45;7.22;;;19.50;99.90;;;19.03;74.15;101798.00;4994652;28;20495;-71
2021/07/08 04:03:04;;;;;;;11.93;7.85;;;18.90;99.90;;;18.90;74.64;101787.56;4993767;28;20047;-71
2021/07/08 04:05:33;;;;;;;8.73;7.25;;;18.60;99.90;;;19.08;75.23;101801.44;4993655;28;20058;-71
2021/07/08 04:08:03;;;;;;;9.70;7.50;;;18.70;99.90;;;19.03;74.68;101781.91;4994523;28;20092;-70
2021/07/08 04:10:35;;;;;;;10.57;7.35;;;18.80;99.90;;;19.34;74.82;101820.47;4994607;28;20038;-69
2021/07/08 04:13:06;;;;;;;8.68;7.78;;;18.90;99.90;;;19.18;74.37;101781.53;4993330;28;20055;-69
2021/07/08 04:15:35;;;;;;;11.18;7.70;;;18.90;99.90;;;19.52;73.78;101822.69;4994276;28;20163;-70
2021/07/08 04:18:06;;;;;;;10.15;7.90;;;19.10;99.90;;;19.52;73.45;101825.38;4994578;28;20133;-70
2021/07/08 04:20:35;;;;;;;12.82;8.18;;;19.20;99.90;;;19.68;73.52;101818.69;4994775;28;20397;-69
2021/07/08 04:23:06;;;;;;;12.43;8.48;;;19.20;99.90;;;19.77;73.35;101818.44;4994423;28;20443;-70
2021/07/08 04:25:39;;;;;;;9.40;7.60;;;19.30;99.90;;;19.83;72.52;101828.13;4994488;28;20039;-72
2021/07/08 04:28:09;;;;;;;10.07;7.90;;;19.40;99.90;;;19.74;72.14;101797.06;4993915;28;20057;-72
2021/07/08 04:30:38;;;;;;;9.80;8.25;;;19.40;99.90;;;19.86;71.97;101818.19;4994275;28;20046;-73
2021/07/08 04:33:08;;;;;;;12.43;7.53;;;19.50;99.90;;;19.93;72.14;101819.81;4994349;28;20088;-73
2021/07/08 04:35:38;;;;;;;9.65;8.43;;;19.50;99.90;;;19.93;71.39;101809.06;4993944;28;20313;-73
2021/07/08 04:38:09;;;;;;;;;;;19.60;99.90;;;20.06;70.65;101818.53;4994718;28;20046;-73
2021/07/08 04:40:38;;;;;;;;;;;19.70;99.90;;;20.08;70.43;101823.84;4994285;28;19925;-73
2021/07/08 04:43:09;;;;;;;9.23;8.32;;;19.70;99.90;;;20.13;70.33;101825.47;5009176;28;20363;-73
2021/07/08 04:45:37;;;;;;;;;;;19.70;99.90;;;20.18;70.03;101831.66;4994395;28;20054;-73
2021/07/08 04:48:09;;;;;;;11.25;8.00;;;19.80;99.90;;;19.90;70.09;101773.34;4994046;28;20275;-73
2021/07/08 04:50:38;;;;;;;11.02;8.27;;;19.80;99.90;;;20.25;69.93;101841.28;4994332;28;20046;-73
2021/07/08 04:53:08;;;;;;;9.23;7.80;;;19.80;99.90;;;20.25;70.13;101841.28;4994369;28;20070;-73
2021/07/08 04:55:36;;;;;;;11.75;8.55;;;19.80;99.90;;;20.28;70.01;101841.22;4993921;28;20050;-74
2021/07/08 04:58:05;;;;;;;10.05;8.25;;;19.90;99.90;;;20.11;70.01;101808.50;4993583;28;20399;-73
2021/07/08 05:00:33;;;;;;;9.55;7.75;;;19.90;99.90;;;20.32;70.05;101848.28;4994013;28;20074;-73
2021/07/08 05:03:07;;;;;;;10.77;8.15;;;19.90;99.90;;;20.21;69.92;101825.31;5009288;28;20518;-73
2021/07/08 05:05:36;;;;;;;9.82;7.72;;;19.90;99.90;;;20.37;69.84;101857.06;4994164;28;20070;-73
2021/07/08 05:08:06;;;;;;;10.70;8.32;;;19.90;99.90;;;20.40;69.62;101859.66;4993945;28;20466;-73
2021/07/08 05:10:36;;;;;;;13.13;8.30;;;19.90;99.90;;;20.44;69.48;101863.16;4993999;28;20108;-73
2021/07/08 05:13:04;;;;;;;12.60;9.13;;;20.00;99.90;;;20.48;69.40;101854.06;4993958;28;20038;-73
2021/07/08 05:15:35;;;;;;;11.07;8.82;;;20.00;99.90;;;20.47;69.17;101858.56;4993853;28;20137;-73
2021/07/08 05:18:06;;;;;;;15.65;8.68;;;20.10;99.90;;;20.51;69.59;101876.38;4993922;28;20050;-73
2021/07/08 05:20:37;;;;;;;11.05;8.25;;;20.10;99.90;;;20.53;69.69;101879.00;4993470;28;20504;-72
2021/07/08 05:23:13;;;;;;;9.38;8.30;;;20.10;99.90;;;20.50;70.04;101879.97;5008925;28;20042;-73
2021/07/08 05:25:44;;;;;;;9.57;8.57;;;20.10;99.90;;;20.56;70.12;101890.56;4993746;28;20046;-73
2021/07/08 05:28:13;;;;;;;13.43;9.15;;;20.20;99.90;;;19.85;70.07;101752.00;4993835;28;20049;-73
2021/07/08 05:30:42;;;;;;;10.25;8.40;;;20.20;99.90;;;20.61;70.12;101893.97;4993776;28;20121;-73
2021/07/08 05:33:11;;;;;;;10.80;9.10;;;20.20;99.90;;;20.61;70.02;101893.13;4993247;28;20125;-73
2021/07/08 05:35:39;;;;;;;10.68;7.40;;;20.20;99.90;;;20.58;70.09;101899.47;4993236;28;20054;-73
2021/07/08 05:38:08;;;;;;;10.15;7.78;;;20.30;99.90;;;20.68;70.01;101909.03;4992232;28;20076;-73
2021/07/08 05:40:37;;;;;;;11.32;8.60;;;20.30;99.90;;;20.69;69.97;101910.78;4995789;28;20046;-73
2021/07/08 05:43:07;;;;;;;10.43;7.78;;;20.30;99.90;;;20.74;69.92;101909.75;4997401;28;20050;-73
2021/07/08 05:45:37;;;;;;;8.70;7.80;;;20.30;99.90;;;20.74;70.07;101905.28;4997473;28;20046;-73
2021/07/08 05:48:06;;;;;;;8.38;7.38;;;20.30;99.90;;;20.78;69.82;101912.31;5012701;28;20142;-73
2021/07/08 05:50:35;;;;;;;7.93;7.13;;;20.30;99.90;;;20.80;69.73;101910.47;4996027;28;20124;-73
2021/07/08 05:53:03;;;;;;;7.95;7.18;;;20.40;99.90;;;20.83;69.72;101912.19;4996964;28;20077;-67
2021/07/08 05:55:32;;;;;;;9.13;6.80;;;20.40;99.90;;;20.88;69.67;101912.94;4997028;28;20088;-70
2021/07/08 05:58:00;;;;;;;9.20;6.93;;;20.50;99.90;;;20.86;69.64;101904.03;5012243;28;20054;-71
2021/07/08 06:00:30;;;;;;;8.30;6.95;;;20.50;99.90;;;21.04;69.73;101916.97;4997100;28;20057;-70
2021/07/08 06:02:59;;;;;;;7.90;7.10;;;20.60;99.90;;;20.79;69.81;101878.25;4997065;28;20050;-75
2021/07/08 06:05:29;;;;;;;7.20;6.50;;;20.70;99.90;;;21.20;69.59;101916.41;4996607;28;20121;-75
2021/07/08 06:07:57;;;;;;;9.07;7.03;;;20.80;99.90;;;21.31;69.26;101918.78;4996795;28;20042;-73
2021/07/08 06:10:26;;;;;;;8.40;6.30;;;20.90;99.90;;;21.37;69.03;101919.44;5012008;28;20190;-76
2021/07/08 06:12:55;;;;;;;9.23;6.40;;;21.00;99.90;;;20.96;68.80;101841.84;5011822;28;20484;-75
2021/07/08 06:15:24;;;;;;;6.90;6.20;;;21.10;99.90;;;21.45;68.53;101914.72;4996914;28;20388;-68
2021/07/08 06:17:54;;;;;;;8.82;6.15;;;21.20;99.90;;;21.63;67.13;101932.06;4996772;28;20046;-68
2021/07/08 06:20:23;;;;;;;8.90;6.15;;;21.30;99.90;;;21.69;66.65;101934.56;5011277;28;20582;-68
2021/07/08 06:22:51;;;;;;;10.57;5.70;;;21.30;99.90;;;21.67;65.42;101933.75;4996379;28;20459;-69
2021/07/08 06:25:22;;;;;;;7.60;6.13;;;21.30;99.90;;;21.66;65.27;101940.03;4996778;28;20396;-75
2021/07/08 06:27:51;;;;;;;6.45;5.57;;;21.30;99.90;;;21.49;65.10;101897.53;4996750;28;20042;-70
2021/07/08 06:30:20;;;;;;;5.43;4.57;;;21.40;99.90;;;21.75;64.22;101949.66;4996394;28;20510;-73
2021/07/08 06:32:49;;;;;;;6.43;5.13;;;21.40;99.90;;;21.86;64.53;101953.78;4995020;28;20058;-72
2021/07/08 06:35:19;;;;;;;5.28;4.65;;;21.50;99.90;;;21.93;63.91;101949.94;4996539;28;20046;-72
2021/07/08 06:37:48;;;;;;;4.95;4.47;;;21.60;99.90;;;22.03;63.14;101954.06;4996430;28;20057;-72
2021/07/08 06:40:18;;;;;;;8.95;5.63;;;21.60;99.90;;;22.02;61.76;101962.22;4995087;28;20073;-72
2021/07/08 06:42:47;;;;;;;5.35;4.85;;;21.60;99.90;;;22.12;61.96;101960.97;4996307;28;20042;-72
2021/07/08 06:45:17;;;;;;;5.70;4.55;;;21.70;99.90;;;21.90;62.15;101914.13;4996634;28;20121;-71
2021/07/08 06:47:49;;;;;;;6.60;5.22;;;21.70;99.90;;;22.21;62.25;101953.44;5011310;28;20058;-70
2021/07/08 06:50:21;;;;;;;5.55;4.95;;;21.80;99.90;;;22.34;61.75;101957.47;4995907;28;20046;-71
2021/07/08 06:52:49;;;;;;;7.43;5.38;;;21.90;99.90;;;22.26;62.12;101950.59;4995590;28;20067;-68
2021/07/08 06:55:19;;;;;;;7.00;5.15;;;21.90;99.90;;;22.36;62.20;101979.88;4996056;28;20043;-68
2021/07/08 06:57:53;;;;;;;6.85;5.47;;;22.00;99.90;;;22.14;62.34;101938.41;4996094;28;20046;-69
2021/07/08 07:00:26;;;;;;;8.98;5.30;;;22.00;99.90;;;22.24;61.69;101957.88;4996224;28;20048;-69
2021/07/08 07:02:55;;;;;;;5.53;5.03;;;22.00;99.90;;;22.38;61.45;101983.41;4995968;28;20100;-69
2021/07/08 07:05:27;;;;;;;7.83;5.23;;;22.00;99.90;;;22.42;61.10;101993.13;4996003;28;20483;-69
2021/07/08 07:07:56;;;;;;;6.47;5.82;;;22.00;99.90;;;22.32;61.62;101967.44;4995790;28;20293;-69
2021/07/08 07:10:27;;;;;;;8.63;5.70;;;22.00;99.90;;;22.50;62.00;101998.25;4995943;28;20105;-69
2021/07/08 07:12:57;;;;;;;5.93;5.18;;;22.10;99.90;;;22.57;62.61;101991.72;4995862;28;20065;-69
2021/07/08 07:15:29;;;;;;;7.45;5.68;;;22.20;99.90;;;22.53;61.92;101970.31;4996050;28;20046;-69
2021/07/08 07:17:58;;;;;;;11.13;5.50;;;22.20;99.90;;;22.56;61.36;101951.28;4995679;28;20466;-69
2021/07/08 07:20:28;;;;;;;6.85;5.70;;;22.40;99.90;;;22.76;61.59;101975.78;5010305;28;20038;-68
2021/07/08 07:22:57;;;;;;;7.75;5.40;;;22.40;99.90;;;22.83;62.09;101966.50;4995714;28;20048;-69
2021/07/08 07:25:27;;;;;;;7.18;5.10;;;22.50;99.90;;;22.80;61.39;101953.13;4995614;28;20046;-69
2021/07/08 07:27:56;;;;;;;;;;;22.60;99.90;;;23.00;60.91;101975.72;4996044;28;20038;-69
2021/07/08 07:30:27;;;;;;;6.43;5.80;;;22.70;99.90;;;23.08;60.75;101964.63;4995281;28;19922;-69
2021/07/08 07:32:56;;;;;;;6.65;5.65;;;22.80;99.90;;;22.96;60.47;101933.59;4995547;28;20161;-69
2021/07/08 07:35:25;;;;;;;11.30;7.10;;;22.80;99.90;;;23.32;60.64;101973.63;4995348;28;20054;-69
2021/07/08 07:37:55;;;;;;;11.90;6.65;;;22.90;99.90;;;23.32;61.22;101957.44;4995042;28;20495;-69
2021/07/08 07:40:24;;;;;;;12.68;7.25;;;23.00;99.90;;;23.48;60.60;101969.41;4995471;28;20137;-69
2021/07/08 07:42:53;;;;;;;9.32;5.95;;;23.10;99.90;;;23.64;61.29;101976.81;4993935;28;20050;-70
2021/07/08 07:45:22;;;;;;;9.50;6.13;;;23.30;99.90;;;23.56;60.75;101962.72;4995162;28;20064;-69
2021/07/08 07:47:53;;;;;;;8.80;6.43;;;23.30;99.90;;;23.70;60.84;101981.97;4995171;28;20097;-69
2021/07/08 07:50:24;;;;;;;11.80;6.43;;;23.40;99.90;;;23.83;59.92;101972.41;4995227;28;20054;-69
2021/07/08 07:52:55;;;;;;;;;;;23.50;99.90;;;23.79;60.48;101950.97;4995521;28;20081;-65
2021/07/08 07:55:27;;;;;;;6.85;6.03;;;23.60;99.90;;;24.01;59.73;101974.34;4995105;28;19921;-67
2021/07/08 07:57:56;;;;;;;11.40;6.85;;;23.60;99.90;;;24.01;59.86;101968.94;4995028;28;20049;-66
2021/07/08 08:00:26;;;;;;;9.18;6.85;;;23.70;99.90;;;24.10;60.02;101970.38;4994706;28;20451;-66
2021/07/08 08:02:55;;;;;;;6.88;6.05;;;23.70;99.90;;;24.18;59.42;101971.81;4993910;28;20038;-67
2021/07/08 08:08:30;;;;;;;6.32;5.70;;;23.80;99.90;;;24.10;58.87;101965.84;4989538;28;20065;-67
2021/07/08 08:11:00;;;;;;;10.52;6.22;;;23.80;99.90;;;24.14;59.66;101982.81;5009757;28;20046;-67
2021/07/08 08:13:29;;;;;;;7.68;6.15;;;23.80;99.90;;;24.22;59.39;101975.25;4994441;28;20050;-68
2021/07/08 08:15:58;;;;;;;6.60;5.90;;;23.90;99.90;;;24.22;59.88;101972.56;4994605;28;20077;-68
2021/07/08 08:18:27;;;;;;;7.18;6.22;;;23.90;99.90;;;24.37;60.63;101971.03;4994558;28;20403;-67
2021/07/08 08:20:56;;;;;;;6.65;5.82;;;24.00;99.90;;;24.36;58.19;101977.38;4994101;28;20058;-67
2021/07/08 08:23:28;;;;;;;5.30;4.80;;;24.00;99.90;;;24.21;57.16;101972.63;4994374;28;20046;-69
2021/07/08 08:25:57;;;;;;;5.97;4.95;;;24.00;99.90;;;24.14;56.77;101953.97;4994089;28;20048;-68
2021/07/08 08:28:26;;;;;;;8.52;5.32;;;23.90;99.90;;;24.45;57.02;101974.28;4994141;28;20496;-69
2021/07/08 08:30:55;;;;;;;6.20;5.57;;;24.10;99.90;;;24.36;56.75;101961.13;4993106;28;20050;-70
2021/07/08 08:33:23;;;;;;;9.40;5.68;;;24.10;99.90;;;24.62;56.60;101979.81;4994013;28;20046;-70
2021/07/08 08:35:52;;;;;;;5.63;5.13;;;24.30;99.90;;;24.63;56.09;101970.75;4994403;28;20093;-72
2021/07/08 08:38:21;;;;;;;5.90;5.10;;;24.40;99.90;;;24.86;55.83;101992.25;4994111;28;20054;-71
2021/07/08 08:40:52;;;;;;;6.38;5.25;;;24.50;99.90;;;24.84;54.87;102000.47;4994038;28;20073;-72
2021/07/08 08:43:22;;;;;;;7.18;5.10;;;24.60;99.90;;;25.00;55.18;101993.41;4994364;28;20070;-68
2021/07/08 08:45:52;;;;;;;4.65;4.22;;;24.70;99.90;;;24.89;53.69;102000.25;4994048;28;20058;-70
2021/07/08 08:48:20;;;;;;;6.95;4.75;;;24.60;99.90;;;25.01;54.52;101996.97;4994169;28;20088;-69
2021/07/08 08:50:50;;;;;;;5.85;4.50;;;24.60;99.90;;;25.09;53.72;101986.66;5008924;28;20107;-68
2021/07/08 08:53:20;;;;;;;6.93;5.15;;;24.80;99.90;;;25.00;54.02;101970.84;4993951;28;20050;-68
2021/07/08 08:55:51;;;;;;;5.78;4.30;;;24.80;99.90;;;24.93;52.46;101962.13;4993765;28;20065;-68
2021/07/08 08:58:21;;;;;;;4.68;4.28;;;24.80;99.90;;;25.00;52.22;101965.44;4994016;28;20038;-67
2021/07/08 09:00:51;;;;;;;;;;;24.80;99.90;;;25.27;53.03;101974.97;4994406;28;20073;-69
2021/07/08 09:03:25;;;;;;;4.63;4.18;;;24.90;99.90;;;25.43;53.03;101981.47;4994024;28;19929;-70
2021/07/08 09:06:04;;;;;;;5.40;4.65;;;25.10;99.90;;;25.42;52.37;101979.69;4993662;28;20101;-69
2021/07/08 09:08:34;;;;;;;6.55;4.78;;;25.10;99.90;;;25.57;52.80;101989.78;4993908;28;20116;-68
2021/07/08 09:11:12;;;;;;;8.10;4.78;;;25.20;99.90;;;25.52;52.72;101989.13;4993485;28;20042;-68
2021/07/08 09:13:59;;;;;;;6.55;4.80;;;25.30;99.90;;;25.00;52.08;101871.53;4994007;28;20042;-66
2021/07/08 09:16:33;;;;;;;6.68;4.70;;;25.40;99.90;;;25.70;52.50;101996.38;4997433;28;20050;-66
2021/07/08 09:19:10;;;;;;;5.13;4.63;;;25.40;99.90;;;25.57;51.18;101994.34;4996172;28;20129;-66
2021/07/08 09:21:43;;;;;;;7.30;4.97;;;25.20;99.90;;;25.25;51.66;101952.50;4997424;28;20061;-66
2021/07/08 09:24:20;;;;;;;6.53;4.75;;;25.20;99.90;;;25.26;52.31;101958.78;4997726;28;20046;-66
2021/07/08 09:27:00;;;;;;;5.43;4.40;;;25.10;99.90;;;25.54;51.56;101989.94;5012807;28;20051;-68
2021/07/08 09:29:32;;;;;;;6.53;5.20;;;25.20;99.90;;;25.69;52.54;101983.75;4996498;28;20108;-68
2021/07/08 09:32:05;;;;;;;6.25;4.65;;;25.30;99.90;;;25.74;52.49;101979.00;4997889;28;20046;-68
2021/07/08 09:34:36;;;;;;;6.25;4.75;;;25.40;99.90;;;25.77;52.90;101981.56;4997341;28;20070;-66
2021/07/08 09:37:08;;;;;;;5.78;5.00;;;25.50;99.90;;;25.40;51.26;101959.03;4997402;28;20038;-66
2021/07/08 09:39:40;;;;;;;5.80;5.05;;;25.20;99.90;;;25.30;52.16;101953.13;4997380;28;20125;-66
2021/07/08 09:42:13;;;;;;;5.35;4.63;;;25.20;99.90;;;25.49;52.14;101974.84;4997484;28;20105;-66
2021/07/08 09:44:43;;;;;;;5.55;4.57;;;25.30;99.90;;;25.73;51.89;101996.22;4997193;28;20046;-68
2021/07/08 09:47:24;;;;;;;6.22;4.60;;;25.40;99.90;;;25.89;52.03;102007.19;4997238;28;20046;-67
2021/07/08 09:49:54;;;;;;;6.10;4.85;;;25.50;99.90;;;25.87;50.78;102009.09;4997128;28;20050;-67
2021/07/08 09:52:23;;;;;;;6.70;4.90;;;25.50;99.90;;;25.67;51.23;101990.19;4996912;28;20065;-66
2021/07/08 09:57:45;;;;;;;5.78;4.78;;;25.40;99.90;;;25.83;51.42;102021.03;4997108;28;20046;-66
2021/07/08 10:00:33;;;;;;;5.78;4.97;;;25.50;99.90;;;25.81;51.49;102015.69;4997031;28;20046;-66
2021/07/08 10:03:03;;;;;;;6.45;5.00;;;25.40;99.90;;;25.69;51.49;102021.72;4996512;28;20058;-66
2021/07/08 10:05:36;;;;;;;5.55;4.13;;;25.40;99.90;;;25.73;51.05;102026.03;4996841;28;20049;-67
2021/07/08 10:08:09;;;;;;;5.30;4.25;;;25.40;99.90;;;25.73;51.28;102017.00;4997108;28;20047;-66
2021/07/08 10:10:39;;;;;;;5.10;4.60;;;25.40;99.90;;;25.80;51.11;102030.19;4997053;28;20088;-66
2021/07/08 10:13:11;;;;;;;6.68;4.90;;;25.50;99.90;;;25.78;50.72;102032.09;4996883;28;20125;-65
2021/07/08 10:15:43;;;;;;;6.43;4.60;;;25.50;99.90;;;25.74;51.14;102029.63;4996687;28;20066;-65
2021/07/08 10:18:17;;;;;;;5.90;4.78;;;25.40;99.90;;;25.71;51.48;102033.38;4996713;28;20112;-66
2021/07/08 10:20:49;;;;;;;6.50;5.03;;;25.40;99.90;;;25.79;50.22;102028.44;5011498;28;20100;-67
2021/07/08 10:23:18;;;;;;;6.90;4.22;;;25.40;99.90;;;25.96;50.63;102038.44;4996530;28;20039;-66
2021/07/08 10:25:46;;;;;;;7.05;4.40;;;25.50;99.90;;;26.05;51.36;102043.44;5011292;28;20471;-68
2021/07/08 10:28:42;;;;;;;5.32;4.82;;;25.70;99.90;;;26.16;50.96;102043.81;4996409;28;20049;-69
2021/07/08 10:31:15;;;;;;;6.05;4.90;;;25.80;99.90;;;26.21;50.86;102052.59;4996399;28;20097;-68